createdAt,value
2022-10-12T00:00:59.349Z,66.93
2022-10-12T00:03:26.039Z,67.12
2022-10-12T00:06:07.690Z,66.90
2022-10-12T00:08:36.919Z,66.38
2022-10-12T00:11:04.766Z,66.09
2022-10-12T00:13:31.758Z,66.18
2022-10-12T00:16:05.755Z,66.86
2022-10-12T00:18:33.689Z,67.01
2022-10-12T00:21:07.821Z,67.15
2022-10-12T00:23:35.950Z,66.54
2022-10-12T00:26:10.645Z,66.56
2022-10-12T00:28:37.979Z,66.41
2022-10-12T00:31:14.014Z,66.23
2022-10-12T00:33:41.263Z,66.43
2022-10-12T00:36:15.842Z,65.94
2022-10-12T00:38:42.953Z,65.85
2022-10-12T00:41:09.949Z,66.04
2022-10-12T00:43:39.251Z,66.07
2022-10-12T00:46:28.711Z,66.01
2022-10-12T00:49:17.972Z,65.75
2022-10-12T00:51:51.236Z,65.75
2022-10-12T00:54:26.676Z,65.65
2022-10-12T00:56:56.705Z,66.07
2022-10-12T00:59:32.094Z,65.75
2022-10-12T01:01:58.879Z,66.04
2022-10-12T01:04:26.393Z,66.05
2022-10-12T01:06:53.249Z,65.86
2022-10-12T01:09:21.388Z,65.91
2022-10-12T01:11:48.473Z,65.88
2022-10-12T01:14:16.519Z,65.73
2022-10-12T01:17:07.394Z,65.51
2022-10-12T01:19:42.947Z,65.63
2022-10-12T01:22:15.802Z,65.62
2022-10-12T01:24:54.353Z,65.47
2022-10-12T01:27:23.921Z,65.64
2022-10-12T01:29:56.738Z,65.67
2022-10-12T01:32:33.817Z,65.67
2022-10-12T01:35:23.484Z,65.98
2022-10-12T01:38:10.536Z,66.14
2022-10-12T01:40:42.440Z,66.57
2022-10-12T01:43:09.190Z,66.89
2022-10-12T01:45:35.966Z,67.14
2022-10-12T01:48:04.333Z,67.65
2022-10-12T01:50:49.785Z,67.86
2022-10-12T01:53:54.388Z,68.11
2022-10-12T01:56:33.174Z,68.49
2022-10-12T01:59:40.530Z,68.31
2022-10-12T02:02:42.773Z,68.58
2022-10-12T02:05:28.271Z,68.66
2022-10-12T02:08:03.527Z,68.74
2022-10-12T02:10:48.675Z,69.18
2022-10-12T02:13:19.542Z,69.49
2022-10-12T02:15:48.629Z,69.40
2022-10-12T02:18:19.446Z,69.74
2022-10-12T02:20:48.996Z,69.62
2022-10-12T02:23:17.199Z,69.51
2022-10-12T02:25:46.019Z,69.34
2022-10-12T02:28:17.660Z,69.18
2022-10-12T02:30:57.312Z,69.42
2022-10-12T02:33:38.638Z,70.16
2022-10-12T02:36:19.614Z,69.66
2022-10-12T02:39:19.190Z,69.54
2022-10-12T02:41:51.068Z,69.97
2022-10-12T02:44:24.942Z,69.91
2022-10-12T02:46:54.551Z,70.49
2022-10-12T02:49:25.283Z,70.85
2022-10-12T02:51:52.789Z,71.34
2022-10-12T02:54:20.445Z,71.48
2022-10-12T02:56:47.816Z,71.61
2022-10-12T02:59:15.700Z,71.65
2022-10-12T03:01:43.869Z,71.99
2022-10-12T03:04:10.863Z,71.93
2022-10-12T03:06:37.898Z,72.10
2022-10-12T03:09:05.398Z,72.09
2022-10-12T03:11:32.264Z,72.54
2022-10-12T03:13:59.218Z,72.72
2022-10-12T03:16:26.085Z,72.46
2022-10-12T03:18:52.812Z,70.84
2022-10-12T03:21:19.458Z,69.67
2022-10-12T03:23:46.135Z,69.15
2022-10-12T03:26:12.711Z,68.91
2022-10-12T03:28:39.375Z,69.18
2022-10-12T03:31:06.285Z,69.16
2022-10-12T03:33:32.972Z,68.80
2022-10-12T03:35:59.843Z,68.55
2022-10-12T03:38:26.504Z,68.24
2022-10-12T03:40:53.371Z,67.67
2022-10-12T03:43:20.002Z,66.97
2022-10-12T03:45:46.785Z,66.81
2022-10-12T03:48:13.470Z,66.90
2022-10-12T03:50:40.457Z,66.76
2022-10-12T03:53:07.108Z,67.50
2022-10-12T03:55:33.785Z,67.60
2022-10-12T03:58:00.677Z,68.25
2022-10-12T04:00:28.289Z,68.71
2022-10-12T04:02:55.697Z,69.29
2022-10-12T04:05:22.846Z,69.71
2022-10-12T04:07:49.668Z,70.31
2022-10-12T04:10:16.480Z,69.93
2022-10-12T04:12:43.097Z,70.48
2022-10-12T04:15:10.228Z,71.23
2022-10-12T04:17:37.696Z,71.58
2022-10-12T04:20:06.035Z,72.33
2022-10-12T04:22:34.113Z,72.38
2022-10-12T04:25:00.781Z,72.61
2022-10-12T04:27:27.446Z,72.49
2022-10-12T04:29:54.182Z,72.62
2022-10-12T04:32:20.950Z,72.57
2022-10-12T04:34:47.590Z,72.64
2022-10-12T04:37:14.452Z,73.18
2022-10-12T04:39:41.166Z,73.09
2022-10-12T04:42:07.916Z,73.66
2022-10-12T04:44:34.914Z,73.70
2022-10-12T04:47:02.472Z,73.66
2022-10-12T04:49:29.207Z,73.83
2022-10-12T04:51:55.928Z,73.57
2022-10-12T04:54:22.540Z,73.41
2022-10-12T04:56:49.186Z,73.33
2022-10-12T04:59:15.932Z,72.86
2022-10-12T05:01:43.106Z,73.34
2022-10-12T05:04:09.896Z,73.77
2022-10-12T05:06:36.483Z,73.57
2022-10-12T05:09:03.304Z,72.89
2022-10-12T05:11:29.969Z,72.01
2022-10-12T05:13:56.572Z,72.01
2022-10-12T05:16:23.195Z,71.18
2022-10-12T05:18:49.820Z,71.28
2022-10-12T05:21:16.832Z,70.67
2022-10-12T05:23:43.488Z,70.90
2022-10-12T05:26:10.267Z,70.04
2022-10-12T05:28:40.786Z,69.86
2022-10-12T05:31:07.960Z,68.72
2022-10-12T05:33:34.594Z,68.10
2022-10-12T05:36:01.434Z,67.23
2022-10-12T05:38:28.317Z,66.76
2022-10-12T05:41:00.102Z,66.04
2022-10-12T05:43:27.492Z,65.50
2022-10-12T05:45:54.603Z,62.72
2022-10-12T05:48:21.252Z,61.10
2022-10-12T05:50:47.863Z,60.81
2022-10-12T05:53:14.475Z,60.33
2022-10-12T05:55:52.034Z,61.46
2022-10-12T05:58:18.947Z,63.19
2022-10-12T06:00:45.550Z,64.43
2022-10-12T06:03:12.226Z,65.17
2022-10-12T06:05:38.868Z,65.44
2022-10-12T06:08:05.755Z,65.68
2022-10-12T06:10:32.871Z,65.39
2022-10-12T06:12:59.502Z,65.38
2022-10-12T06:15:26.185Z,66.17
2022-10-12T06:17:52.865Z,65.09
2022-10-12T06:20:19.607Z,64.11
2022-10-12T06:22:46.291Z,64.49
2022-10-12T06:25:13.423Z,64.18
2022-10-12T06:27:40.181Z,63.06
2022-10-12T06:30:07.145Z,63.58
2022-10-12T06:32:34.721Z,64.31
2022-10-12T06:35:01.735Z,64.22
2022-10-12T06:37:49.004Z,64.08
2022-10-12T06:40:20.128Z,62.98
2022-10-12T06:42:48.312Z,62.16
2022-10-12T06:45:15.882Z,62.44
2022-10-12T06:47:42.666Z,62.42
2022-10-12T06:50:10.060Z,62.20
2022-10-12T06:52:37.324Z,61.50
2022-10-12T06:55:05.326Z,62.42
2022-10-12T06:57:32.270Z,61.41
2022-10-12T06:59:58.916Z,60.63
2022-10-12T07:02:25.553Z,59.97
2022-10-12T07:04:52.831Z,59.48
2022-10-12T07:07:20.352Z,58.85
2022-10-12T07:09:47.103Z,57.62
2022-10-12T07:12:13.820Z,55.56
2022-10-12T07:14:40.755Z,54.47
2022-10-12T07:17:07.505Z,54.85
2022-10-12T07:19:34.210Z,57.00
2022-10-12T07:22:01.386Z,58.09
2022-10-12T07:24:35.880Z,56.23
2022-10-12T07:27:04.670Z,56.18
2022-10-12T07:29:32.375Z,58.21
2022-10-12T07:31:59.436Z,56.07
2022-10-12T07:34:30.065Z,54.37
2022-10-12T07:36:59.928Z,53.35
2022-10-12T07:39:27.338Z,52.52
2022-10-12T07:41:54.868Z,53.93
2022-10-12T07:44:22.704Z,54.85
2022-10-12T07:46:49.535Z,55.16
2022-10-12T07:49:16.310Z,54.96
2022-10-12T07:51:43.590Z,55.42
2022-10-12T07:54:10.837Z,55.34
2022-10-12T07:56:40.464Z,54.83
2022-10-12T07:59:07.157Z,54.95
2022-10-12T08:01:34.788Z,53.80
2022-10-12T08:04:02.213Z,52.43
2022-10-12T08:06:31.437Z,50.40
2022-10-12T08:08:59.574Z,50.77
2022-10-12T08:11:26.731Z,50.93
2022-10-12T08:13:53.764Z,50.84
2022-10-12T08:16:21.384Z,49.46
2022-10-12T08:18:48.111Z,48.13
2022-10-12T08:21:15.884Z,46.15
2022-10-12T08:23:44.643Z,47.39
2022-10-12T08:26:12.588Z,46.55
2022-10-12T08:28:39.729Z,47.50
2022-10-12T08:31:15.030Z,47.33
2022-10-12T08:33:41.980Z,48.24
2022-10-12T08:36:09.261Z,47.53
2022-10-12T08:38:40.329Z,50.54
2022-10-12T08:41:22.236Z,49.64
2022-10-12T08:44:10.026Z,49.59
2022-10-12T08:46:36.804Z,48.27
2022-10-12T08:49:03.400Z,49.14
2022-10-12T08:51:33.323Z,50.67
2022-10-12T08:54:06.791Z,49.92
2022-10-12T08:56:39.565Z,49.28
2022-10-12T08:59:09.402Z,49.35
2022-10-12T09:01:59.113Z,49.78
2022-10-12T09:05:08.580Z,50.08
2022-10-12T09:07:42.273Z,50.07
2022-10-12T09:10:18.104Z,49.80
2022-10-12T09:12:50.892Z,50.74
2022-10-12T09:15:30.455Z,48.79
2022-10-12T09:17:59.962Z,48.53
2022-10-12T09:20:33.309Z,50.12
2022-10-12T09:23:26.601Z,48.98
2022-10-12T09:25:56.884Z,50.64
2022-10-12T09:28:34.844Z,48.64
2022-10-12T09:31:08.010Z,50.12
2022-10-12T09:33:50.546Z,49.23
2022-10-12T09:36:21.559Z,49.87
2022-10-12T09:38:49.618Z,47.74
2022-10-12T09:41:21.625Z,48.46
2022-10-12T09:43:56.845Z,48.44
2022-10-12T09:46:37.303Z,47.01
2022-10-12T09:49:04.284Z,45.49
2022-10-12T09:51:32.544Z,46.66
2022-10-12T09:54:03.609Z,46.36
2022-10-12T09:56:40.746Z,44.47
2022-10-12T09:59:35.181Z,45.06
2022-10-12T10:02:14.611Z,45.09
2022-10-12T10:04:44.036Z,45.58
2022-10-12T10:07:33.848Z,45.20
2022-10-12T10:10:12.373Z,44.83
2022-10-12T10:12:48.516Z,45.63
2022-10-12T10:15:28.013Z,44.88
2022-10-12T10:17:57.729Z,43.99
2022-10-12T10:20:31.944Z,44.41
2022-10-12T10:23:00.018Z,43.30
2022-10-12T10:25:26.736Z,43.26
2022-10-12T10:28:21.476Z,42.58
2022-10-12T10:31:04.522Z,42.70
2022-10-12T10:33:34.333Z,43.30
2022-10-12T10:36:26.345Z,42.59
2022-10-12T10:38:58.182Z,40.87
2022-10-12T10:41:30.965Z,42.17
2022-10-12T10:43:57.918Z,43.11
2022-10-12T10:46:30.636Z,43.15
2022-10-12T10:49:06.350Z,41.88
2022-10-12T10:51:51.163Z,44.01
2022-10-12T10:54:25.570Z,43.20
2022-10-12T10:56:56.313Z,42.63
2022-10-12T10:59:35.898Z,44.34
2022-10-12T11:02:25.024Z,44.03
2022-10-12T11:05:04.845Z,42.44
2022-10-12T11:07:45.090Z,43.82
2022-10-12T11:10:37.508Z,42.93
2022-10-12T11:13:18.834Z,44.91
2022-10-12T11:15:59.784Z,45.41
2022-10-12T11:18:39.641Z,46.18
2022-10-12T11:21:21.821Z,43.78
2022-10-12T11:23:53.836Z,44.06
2022-10-12T11:26:23.385Z,43.75
2022-10-12T11:28:51.075Z,45.26
2022-10-12T11:31:23.134Z,44.38
2022-10-12T11:33:52.401Z,44.03
2022-10-12T11:36:23.862Z,44.84
2022-10-12T11:39:07.309Z,44.04
2022-10-12T11:42:09.862Z,43.56
2022-10-12T11:44:45.202Z,44.54
2022-10-12T11:47:17.583Z,44.51
2022-10-12T11:49:48.254Z,44.97
2022-10-12T11:52:18.037Z,44.69
2022-10-12T11:55:04.803Z,45.49
2022-10-12T11:57:36.899Z,45.12
2022-10-12T12:00:36.150Z,46.21
2022-10-12T12:03:30.975Z,45.53
2022-10-12T12:06:29.927Z,44.82
2022-10-12T12:09:02.582Z,44.99
2022-10-12T12:11:31.889Z,47.26
2022-10-12T12:14:26.569Z,45.52
2022-10-12T12:17:18.162Z,44.32
2022-10-12T12:19:52.474Z,43.85
2022-10-12T12:22:28.838Z,44.72
2022-10-12T12:25:14.415Z,42.90
2022-10-12T12:27:48.575Z,43.26
2022-10-12T12:30:15.306Z,42.66
2022-10-12T12:32:45.048Z,42.93
2022-10-12T12:35:30.100Z,43.78
2022-10-12T12:38:31.475Z,44.15
2022-10-12T12:41:09.454Z,45.06
2022-10-12T12:43:38.011Z,44.97
2022-10-12T12:46:10.486Z,45.71
2022-10-12T12:48:40.126Z,45.31
2022-10-12T12:51:09.539Z,45.96
2022-10-12T12:53:38.635Z,45.94
2022-10-12T12:56:16.159Z,45.76
2022-10-12T12:58:45.593Z,45.23
2022-10-12T13:01:41.444Z,44.93
2022-10-12T13:04:40.713Z,46.30
2022-10-12T13:07:36.120Z,46.31
2022-10-12T13:10:38.079Z,47.26
2022-10-12T13:13:40.433Z,47.48
2022-10-12T13:17:23.480Z,46.52
2022-10-12T13:19:22.148Z,47.68
2022-10-12T13:21:52.685Z,48.02
2022-10-12T13:24:30.189Z,48.50
2022-10-12T13:27:21.586Z,47.87
2022-10-12T13:29:57.803Z,48.86
2022-10-12T13:32:55.715Z,49.10
2022-10-12T13:35:38.271Z,50.06
2022-10-12T13:38:19.509Z,48.52
2022-10-12T13:40:51.467Z,48.71
2022-10-12T13:43:45.823Z,49.17
2022-10-12T13:46:48.499Z,48.83
2022-10-12T13:49:17.385Z,48.84
2022-10-12T13:51:47.003Z,48.77
2022-10-12T13:54:20.598Z,48.58
2022-10-12T13:56:49.210Z,47.96
2022-10-12T13:59:20.194Z,48.09
2022-10-12T14:01:51.031Z,48.26
2022-10-12T14:04:17.661Z,48.99
2022-10-12T14:06:52.289Z,48.75
2022-10-12T14:09:23.331Z,49.24
2022-10-12T14:11:51.531Z,49.27
2022-10-12T14:14:29.969Z,49.69
2022-10-12T14:16:56.740Z,50.15
2022-10-12T14:19:42.701Z,50.41
2022-10-12T14:22:09.719Z,51.11
2022-10-12T14:24:37.100Z,50.86
2022-10-12T14:27:06.621Z,52.15
2022-10-12T14:29:39.437Z,50.91
2022-10-12T14:32:08.593Z,51.36
2022-10-12T14:34:47.621Z,51.76
2022-10-12T14:37:17.215Z,51.38
2022-10-12T14:39:45.636Z,51.09
2022-10-12T14:42:33.564Z,51.16
2022-10-12T14:45:01.540Z,51.80
2022-10-12T14:47:34.887Z,52.86
2022-10-12T14:50:07.664Z,52.40
2022-10-12T14:52:37.355Z,52.05
2022-10-12T14:55:04.896Z,51.85
2022-10-12T14:57:31.937Z,51.70
2022-10-12T14:59:59.053Z,51.19
2022-10-12T15:02:28.500Z,50.99
2022-10-12T15:04:56.435Z,51.38
2022-10-12T15:07:41.169Z,51.80
2022-10-12T15:10:09.075Z,52.23
2022-10-12T15:12:36.306Z,53.36
2022-10-12T15:15:14.099Z,53.97
2022-10-12T15:17:40.767Z,53.61
2022-10-12T15:20:09.080Z,53.11
2022-10-12T15:22:35.839Z,53.20
2022-10-12T15:25:08.603Z,53.49
2022-10-12T15:27:35.219Z,53.76
2022-10-12T15:30:01.941Z,53.63
2022-10-12T15:32:28.576Z,54.10
2022-10-12T15:34:55.314Z,54.58
2022-10-12T15:37:22.860Z,54.84
2022-10-12T15:39:49.621Z,56.70
2022-10-12T15:42:16.325Z,55.61
2022-10-12T15:44:42.956Z,55.69
2022-10-12T15:47:11.150Z,55.86
2022-10-12T15:49:38.576Z,55.99
2022-10-12T15:52:06.532Z,56.51
2022-10-12T15:54:33.140Z,56.79
2022-10-12T15:56:59.812Z,57.30
2022-10-12T15:59:27.075Z,58.04
2022-10-12T16:01:53.762Z,58.80
2022-10-12T16:04:20.397Z,59.12
2022-10-12T16:06:47.004Z,60.42
2022-10-12T16:09:13.651Z,60.23
2022-10-12T16:11:40.320Z,60.55
2022-10-12T16:14:07.048Z,61.05
2022-10-12T16:16:33.696Z,61.20
2022-10-12T16:19:00.327Z,61.49
2022-10-12T16:21:26.974Z,62.46
2022-10-12T16:23:53.680Z,62.89
2022-10-12T16:26:20.417Z,63.32
2022-10-12T16:28:47.111Z,63.38
2022-10-12T16:31:18.064Z,63.89
2022-10-12T16:33:45.474Z,64.23
2022-10-12T16:36:15.142Z,64.43
2022-10-12T16:38:42.995Z,64.38
2022-10-12T16:41:15.180Z,64.30
2022-10-12T16:43:41.955Z,63.26
2022-10-12T16:46:08.957Z,63.10
2022-10-12T16:48:36.539Z,63.05
2022-10-12T16:51:08.130Z,62.96
2022-10-12T16:53:35.075Z,62.76
2022-10-12T16:56:02.431Z,62.74
2022-10-12T16:58:29.050Z,62.77
2022-10-12T17:00:55.751Z,62.53
2022-10-12T17:03:24.894Z,62.53
2022-10-12T17:06:01.017Z,62.32
2022-10-12T17:08:27.819Z,62.48
2022-10-12T17:10:55.481Z,62.62
2022-10-12T17:13:24.412Z,62.42
2022-10-12T17:15:51.074Z,62.10
2022-10-12T17:18:17.763Z,62.22
2022-10-12T17:20:45.018Z,62.58
2022-10-12T17:23:12.904Z,63.32
2022-10-12T17:25:39.662Z,64.63
2022-10-12T17:28:06.246Z,65.22
2022-10-12T17:30:38.375Z,65.41
2022-10-12T17:33:05.249Z,65.67
2022-10-12T17:35:31.916Z,65.85
2022-10-12T17:37:58.721Z,65.43
2022-10-12T17:40:25.409Z,65.62
2022-10-12T17:42:52.010Z,65.01
2022-10-12T17:45:18.632Z,65.03
2022-10-12T17:47:49.031Z,65.96
2022-10-12T17:50:16.005Z,66.09
2022-10-12T17:52:42.688Z,66.72
2022-10-12T17:55:19.185Z,66.36
2022-10-12T17:57:55.982Z,66.38
2022-10-12T18:00:22.647Z,66.63
2022-10-12T18:02:49.455Z,66.87
2022-10-12T18:05:16.311Z,66.92
2022-10-12T18:07:43.017Z,66.57
2022-10-12T18:10:10.826Z,67.21
2022-10-12T18:12:37.520Z,68.19
2022-10-12T18:15:07.422Z,68.60
2022-10-12T18:17:34.852Z,68.73
2022-10-12T18:20:01.889Z,68.75
2022-10-12T18:22:29.379Z,68.95
2022-10-12T18:24:56.075Z,68.87
2022-10-12T18:27:22.901Z,69.24
2022-10-12T18:29:49.760Z,69.55
2022-10-12T18:32:16.835Z,69.38
2022-10-12T18:34:43.891Z,69.13
2022-10-12T18:37:10.615Z,67.86
2022-10-12T18:39:40.140Z,67.39
2022-10-12T18:42:06.920Z,67.06
2022-10-12T18:44:33.597Z,67.15
2022-10-12T18:47:00.222Z,67.85
2022-10-12T18:49:26.945Z,67.86
2022-10-12T18:51:53.918Z,68.67
2022-10-12T18:54:20.826Z,68.80
2022-10-12T18:56:47.710Z,68.37
2022-10-12T18:59:17.963Z,68.52
2022-10-12T19:01:47.620Z,69.00
2022-10-12T19:04:14.448Z,68.81
2022-10-12T19:06:45.136Z,68.93
2022-10-12T19:09:13.789Z,69.38
2022-10-12T19:11:40.907Z,69.33
2022-10-12T19:14:13.965Z,69.79
2022-10-12T19:16:43.805Z,69.61
2022-10-12T19:19:20.430Z,69.51
2022-10-12T19:21:48.546Z,69.86
2022-10-12T19:24:15.877Z,69.84
2022-10-12T19:26:43.793Z,70.30
2022-10-12T19:29:13.243Z,70.48
2022-10-12T19:31:43.493Z,70.42
2022-10-12T19:34:12.461Z,70.31
2022-10-12T19:36:40.337Z,70.18
2022-10-12T19:39:10.271Z,70.07
2022-10-12T19:41:37.318Z,70.50
2022-10-12T19:44:05.374Z,70.69
2022-10-12T19:46:32.715Z,71.06
2022-10-12T19:49:00.691Z,70.83
2022-10-12T19:51:29.494Z,72.24
2022-10-12T19:53:57.984Z,72.67
2022-10-12T19:56:24.896Z,72.41
2022-10-12T19:58:55.112Z,72.33
2022-10-12T20:01:31.271Z,72.28
2022-10-12T20:03:58.118Z,71.83
2022-10-12T20:06:28.096Z,71.39
2022-10-12T20:08:57.630Z,71.48
2022-10-12T20:11:25.073Z,71.71
2022-10-12T20:13:52.330Z,72.14
2022-10-12T20:16:20.555Z,72.80
2022-10-12T20:18:47.535Z,73.06
2022-10-12T20:21:18.648Z,73.26
2022-10-12T20:23:46.064Z,73.12
2022-10-12T20:26:16.183Z,73.30
2022-10-12T20:28:43.173Z,73.54
2022-10-12T20:31:10.267Z,74.69
2022-10-12T20:33:39.092Z,74.74
2022-10-12T20:36:11.067Z,74.43
2022-10-12T20:38:38.382Z,73.84
2022-10-12T20:41:10.749Z,73.97
2022-10-12T20:43:40.536Z,74.27
2022-10-12T20:46:11.209Z,74.10
2022-10-12T20:48:40.055Z,74.25
2022-10-12T20:51:08.422Z,73.98
2022-10-12T20:53:35.758Z,74.33
2022-10-12T20:56:06.463Z,74.68
2022-10-12T20:58:33.203Z,75.07
2022-10-12T21:01:08.211Z,75.01
2022-10-12T21:03:34.944Z,74.83
2022-10-12T21:06:03.598Z,74.71
2022-10-12T21:08:30.384Z,74.68
2022-10-12T21:10:57.362Z,74.62
2022-10-12T21:13:24.011Z,74.86
2022-10-12T21:15:54.343Z,74.39
2022-10-12T21:18:21.792Z,74.90
2022-10-12T21:20:56.428Z,73.93
2022-10-12T21:23:23.243Z,73.25
2022-10-12T21:25:50.431Z,72.91
2022-10-12T21:28:17.596Z,73.45
2022-10-12T21:30:44.666Z,73.65
2022-10-12T21:33:11.497Z,73.38
2022-10-12T21:35:38.115Z,73.04
2022-10-12T21:38:04.882Z,72.02
2022-10-12T21:40:32.591Z,71.83
2022-10-12T21:42:59.370Z,71.43
2022-10-12T21:45:26.203Z,71.46
2022-10-12T21:47:52.883Z,71.44
2022-10-12T21:50:19.584Z,71.99
2022-10-12T21:52:49.802Z,71.96
2022-10-12T21:55:16.937Z,72.12
2022-10-12T21:57:43.616Z,71.83
2022-10-12T22:00:11.073Z,71.51
2022-10-12T22:02:40.508Z,71.91
2022-10-12T22:05:07.352Z,72.35
2022-10-12T22:07:34.161Z,71.93
2022-10-12T22:10:01.578Z,71.62
2022-10-12T22:12:30.103Z,71.66
2022-10-12T22:14:56.830Z,71.75
2022-10-12T22:17:26.709Z,71.90
2022-10-12T22:19:53.430Z,72.07
2022-10-12T22:22:20.404Z,71.97
2022-10-12T22:24:47.263Z,72.09
2022-10-12T22:27:13.954Z,72.13
2022-10-12T22:29:40.661Z,71.93
2022-10-12T22:32:07.489Z,71.62
2022-10-12T22:34:34.132Z,71.30
2022-10-12T22:37:00.781Z,71.22
2022-10-12T22:39:27.434Z,71.32
2022-10-12T22:41:54.124Z,71.02
2022-10-12T22:44:20.980Z,70.94
2022-10-12T22:46:53.860Z,71.20
2022-10-12T22:49:20.669Z,71.68
2022-10-12T22:51:47.339Z,72.09
2022-10-12T22:54:14.070Z,72.22
2022-10-12T22:56:41.380Z,72.04
2022-10-12T22:59:12.935Z,71.75
2022-10-12T23:01:39.763Z,72.08
2022-10-12T23:04:06.578Z,72.30
2022-10-12T23:06:33.257Z,72.37
2022-10-12T23:09:00.172Z,72.04
2022-10-12T23:11:29.082Z,71.95
2022-10-12T23:13:57.299Z,71.52
2022-10-12T23:16:27.470Z,70.89
2022-10-12T23:18:59.338Z,70.84
2022-10-12T23:21:27.943Z,70.57
2022-10-12T23:23:55.168Z,70.58
2022-10-12T23:26:24.686Z,70.42
2022-10-12T23:28:52.575Z,70.48
2022-10-12T23:31:22.529Z,70.35
2022-10-12T23:34:00.229Z,70.31
2022-10-12T23:36:27.528Z,70.64
2022-10-12T23:38:54.701Z,70.43
2022-10-12T23:41:21.589Z,70.47
2022-10-12T23:43:48.268Z,70.56
2022-10-12T23:46:15.095Z,70.26
2022-10-12T23:48:41.802Z,70.00
2022-10-12T23:51:09.958Z,69.84
2022-10-12T23:53:36.904Z,69.80
2022-10-12T23:56:04.041Z,69.94
2022-10-12T23:58:30.827Z,69.91
